Time;durP1;ratioP1;P1;durP2;ratioP2;P2;SDS_P1;SDS_P2;PMS_P1;PMS_P2;Temp;Humidity;BMP_temperature;BMP_pressure;BME280_temperature;BME280_humidity;BME280_pressure;Samples;Min_cycle;Max_cycle;Signal;HPM_P1;HPM_P2
2023/12/03 00:02:14;;;;;;;35.10;14.60;;;;;;;-2.54;88.31;100575.67;106047;1291;58283;-58
2023/12/03 00:05:02;;;;;;;47.60;17.10;;;;;;;-2.53;88.88;100577.73;105998;1291;60738;-58
2023/12/03 00:07:49;;;;;;;36.50;16.20;;;;;;;-2.51;88.22;100573.77;106030;1291;72404;-57
2023/12/03 00:10:35;;;;;;;43.00;16.20;;;;;;;-2.48;89.31;100577.21;106068;1291;67418;-57
2023/12/03 00:13:21;;;;;;;48.10;17.70;;;;;;;-2.46;87.97;100580.38;105823;1291;189962;-58
2023/12/03 00:16:07;;;;;;;38.60;16.40;;;;;;;-2.42;87.46;100577.63;106161;1291;58523;-58
2023/12/03 00:18:53;;;;;;;42.90;16.20;;;;;;;-2.39;88.27;100579.44;106127;1290;59024;-58
2023/12/03 00:21:39;;;;;;;44.00;17.80;;;;;;;-2.38;90.18;100575.39;106048;1291;72405;-59
2023/12/03 00:24:25;;;;;;;;;;;;;;;-2.37;89.10;100576.80;106149;1289;67556;-58
2023/12/03 00:27:11;;;;;;;38.70;15.70;;;;;;;-2.35;89.16;100577.38;106124;1291;71733;-59
2023/12/03 00:29:57;;;;;;;42.60;16.30;;;;;;;-2.34;89.52;100577.58;106135;1291;59482;-59
2023/12/03 00:32:43;;;;;;;44.50;17.60;;;;;;;-2.32;88.62;100581.50;106110;1292;60111;-58
2023/12/03 00:35:29;;;;;;;43.80;15.40;;;;;;;-2.29;88.27;100580.94;106133;1291;72609;-57
2023/12/03 00:38:16;;;;;;;40.90;16.00;;;;;;;-2.27;87.83;100581.38;106146;1290;68078;-59
2023/12/03 00:41:01;;;;;;;36.00;15.60;;;;;;;-2.24;88.02;100581.30;106122;1291;72628;-58
2023/12/03 00:43:48;;;;;;;36.10;15.70;;;;;;;-2.24;88.32;100581.97;106142;1291;59403;-58
2023/12/03 00:46:34;;;;;;;33.20;14.10;;;;;;;-2.23;87.68;100582.18;106135;1292;59216;-56
2023/12/03 00:49:20;;;;;;;37.30;15.90;;;;;;;-2.22;88.18;100583.38;106126;1290;73035;-58
2023/12/03 00:52:06;;;;;;;35.50;14.80;;;;;;;-2.22;87.91;100582.90;106148;1291;67174;-58
2023/12/03 00:54:52;;;;;;;34.80;15.50;;;;;;;-2.22;88.30;100586.77;106077;1291;71384;-59
2023/12/03 00:57:38;;;;;;;33.00;14.90;;;;;;;-2.22;88.54;100588.45;106058;1290;58299;-59
2023/12/03 01:00:24;;;;;;;32.10;13.80;;;;;;;-2.21;87.73;100596.77;106125;1291;58872;-58
2023/12/03 01:03:10;;;;;;;36.60;15.70;;;;;;;-2.19;88.17;100600.04;106113;1291;73219;-58
2023/12/03 01:05:56;;;;;;;34.50;15.20;;;;;;;-2.17;87.86;100606.02;106161;1292;67608;-58
2023/12/03 01:08:43;;;;;;;37.70;15.50;;;;;;;-2.15;87.95;100608.31;106072;1290;70798;-58
2023/12/03 01:11:29;;;;;;;33.20;14.60;;;;;;;-2.13;87.76;100615.30;106097;1291;58155;-58
2023/12/03 01:14:15;;;;;;;37.40;14.10;;;;;;;-2.11;87.98;100616.39;106101;1291;59105;-58
2023/12/03 01:17:01;;;;;;;39.30;16.90;;;;;;;-2.13;87.72;100614.80;106122;1290;73315;-59
2023/12/03 01:19:47;;;;;;;36.80;15.20;;;;;;;-2.13;87.50;100618.16;106115;1291;67467;-57
2023/12/03 01:22:33;;;;;;;33.00;14.60;;;;;;;-2.13;88.95;100622.70;106137;1290;71358;-58
2023/12/03 01:25:19;;;;;;;;;;;;;;;-2.15;88.24;100619.93;106128;1291;58541;-57
2023/12/03 01:28:05;;;;;;;37.80;16.00;;;;;;;-2.15;88.20;100624.84;106134;1291;58865;-59
2023/12/03 01:30:51;;;;;;;39.20;15.90;;;;;;;-2.16;88.17;100626.66;106005;1292;73490;-57
2023/12/03 01:33:37;;;;;;;34.70;14.90;;;;;;;-2.15;89.37;100629.76;106137;1292;68593;-57
2023/12/03 01:36:22;;;;;;;31.80;14.60;;;;;;;-2.16;89.81;100634.61;106099;1291;71165;-58
2023/12/03 01:39:08;;;;;;;38.00;16.20;;;;;;;-2.15;90.16;100635.98;106142;1291;58783;-58
2023/12/03 01:41:54;;;;;;;39.60;15.10;;;;;;;-2.16;88.69;100641.04;106153;1291;59038;-58
2023/12/03 01:44:40;;;;;;;36.50;16.10;;;;;;;-2.14;88.44;100644.65;106082;1292;72263;-58
2023/12/03 01:47:27;;;;;;;37.90;16.90;;;;;;;-2.11;88.45;100640.84;106164;1291;67441;-59
2023/12/03 01:50:14;;;;;;;36.90;15.60;;;;;;;-2.12;89.84;100641.34;106092;1290;71385;-58
2023/12/03 01:53:01;;;;;;;34.20;13.40;;;;;;;-2.12;89.18;100643.36;106089;1291;59606;-58
2023/12/03 01:55:47;;;;;;;35.40;14.90;;;;;;;-2.10;88.46;100646.48;106142;1291;58886;-57
2023/12/03 01:58:33;;;;;;;37.90;16.60;;;;;;;-2.08;88.72;100649.40;106076;1292;72368;-58
2023/12/03 02:01:19;;;;;;;37.80;16.10;;;;;;;-2.07;89.11;100650.44;106143;1291;69040;-58
2023/12/03 02:04:05;;;;;;;37.80;15.60;;;;;;;-2.05;88.68;100650.86;106109;1292;73035;-58
2023/12/03 02:06:51;;;;;;;41.70;15.60;;;;;;;-2.02;88.50;100655.33;106100;1290;58169;-58
2023/12/03 02:09:38;;;;;;;40.50;17.00;;;;;;;-1.99;88.33;100659.48;106128;1292;58861;-58
2023/12/03 02:12:24;;;;;;;43.50;16.70;;;;;;;-1.98;88.11;100656.64;106090;1291;72642;-59
2023/12/03 02:15:09;;;;;;;46.20;18.00;;;;;;;-1.96;88.03;100656.39;106149;1292;68415;-59
2023/12/03 02:17:55;;;;;;;36.30;15.80;;;;;;;-1.95;88.27;100660.16;106079;1290;71897;-57
2023/12/03 02:20:41;;;;;;;38.60;16.90;;;;;;;-1.93;87.94;100664.08;106078;1291;58329;-58
2023/12/03 02:23:28;;;;;;;41.70;17.00;;;;;;;-1.92;88.10;100664.98;106125;1291;59047;-59
2023/12/03 02:26:14;;;;;;;41.90;16.30;;;;;;;-1.92;89.13;100668.70;106104;1291;72537;-59
2023/12/03 02:29:00;;;;;;;36.00;14.60;;;;;;;-1.93;89.17;100670.67;106154;1289;69362;-59
2023/12/03 02:31:46;;;;;;;37.00;16.70;;;;;;;-1.93;89.11;100671.52;106114;1290;72573;-59
2023/12/03 02:34:32;;;;;;;33.50;14.90;;;;;;;-1.92;88.57;100681.84;106118;1291;57960;-58
2023/12/03 02:37:18;;;;;;;47.70;16.80;;;;;;;-1.92;89.37;100686.45;106150;1292;60098;-58
2023/12/03 02:40:05;;;;;;;38.80;16.60;;;;;;;-1.91;89.42;100693.03;106166;1291;72814;-58
2023/12/03 02:42:51;;;;;;;40.40;16.20;;;;;;;-1.89;89.13;100698.86;106150;1290;67488;-58
2023/12/03 02:45:38;;;;;;;43.10;15.70;;;;;;;-1.87;89.01;100701.29;106106;1291;71279;-58
2023/12/03 02:48:23;;;;;;;;;;;;;;;-1.86;88.64;100704.73;106162;1291;59271;-58
2023/12/03 02:51:10;;;;;;;;;;;;;;;-1.84;88.90;100707.81;106136;1290;59882;-59
2023/12/03 02:53:55;;;;;;;32.60;14.10;;;;;;;-1.85;88.93;100708.65;106067;1291;73037;-58
2023/12/03 02:56:42;;;;;;;35.60;14.10;;;;;;;-1.84;88.89;100708.36;106057;1291;66757;-58
2023/12/03 02:59:28;;;;;;;29.80;13.10;;;;;;;-1.82;88.97;100706.35;106077;1291;73119;-58
2023/12/03 03:02:14;;;;;;;38.90;14.60;;;;;;;-1.82;88.60;100713.33;105883;1291;58561;-58
2023/12/03 03:05:00;;;;;;;;;;;;;;;-1.80;88.45;100714.23;106106;1290;59802;-57
2023/12/03 03:07:46;;;;;;;33.50;13.00;;;;;;;-1.80;88.92;100720.49;106087;1291;72562;-59
2023/12/03 03:10:32;;;;;;;30.90;12.30;;;;;;;-1.79;88.87;100722.55;106073;1291;66950;-57
2023/12/03 03:13:18;;;;;;;20.40;10.10;;;;;;;-1.78;89.15;100723.42;106140;1291;71583;-58
2023/12/03 03:16:04;;;;;;;22.50;11.30;;;;;;;-1.77;88.60;100726.52;106057;1291;58391;-59
2023/12/03 03:18:50;;;;;;;28.80;11.60;;;;;;;-1.75;89.72;100732.14;106113;1291;59066;-58
2023/12/03 03:21:39;;;;;;;25.20;11.70;;;;;;;-1.75;89.40;100740.08;106162;1290;73379;-58
2023/12/03 03:24:25;;;;;;;22.90;10.70;;;;;;;-1.75;89.18;100742.98;106100;1291;68205;-58
2023/12/03 03:27:11;;;;;;;24.80;11.20;;;;;;;-1.73;89.73;100747.59;106113;1291;73807;-58
2023/12/03 03:29:57;;;;;;;20.20;8.10;;;;;;;-1.72;89.20;100748.84;106084;1291;58979;-58
2023/12/03 03:32:43;;;;;;;18.30;8.40;;;;;;;-1.70;88.73;100748.54;106129;1290;59593;-58
2023/12/03 03:35:29;;;;;;;17.00;8.30;;;;;;;-1.69;89.22;100753.98;106138;1291;72426;-58
2023/12/03 03:38:15;;;;;;;17.90;8.70;;;;;;;-1.69;88.72;100761.45;106076;1291;67245;-59
2023/12/03 03:41:01;;;;;;;16.30;8.70;;;;;;;-1.67;89.02;100759.33;106055;1291;72438;-58
2023/12/03 03:43:47;;;;;;;12.10;6.50;;;;;;;-1.66;88.73;100761.86;106065;1291;58288;-58
2023/12/03 03:46:33;;;;;;;16.10;7.30;;;;;;;-1.64;89.55;100767.66;106072;1292;59725;-58
2023/12/03 03:49:19;;;;;;;9.30;6.60;;;;;;;-1.64;88.90;100767.86;106093;1291;72611;-58
2023/12/03 03:52:05;;;;;;;10.50;6.30;;;;;;;-1.64;90.41;100770.56;106195;1289;67165;-57
2023/12/03 03:54:51;;;;;;;12.80;6.60;;;;;;;-1.63;89.51;100774.80;106251;1289;72524;-58
2023/12/03 03:57:37;;;;;;;12.80;6.40;;;;;;;-1.63;90.15;100776.35;106174;1291;60525;-58
2023/12/03 04:00:23;;;;;;;11.90;6.50;;;;;;;-1.62;89.76;100775.52;106210;1291;60295;-58
2023/12/03 04:03:09;;;;;;;8.70;5.90;;;;;;;-1.62;90.32;100776.86;106200;1292;73586;-58
2023/12/03 04:05:55;;;;;;;10.30;6.00;;;;;;;-1.62;89.72;100778.56;106254;1289;67987;-56
2023/12/03 04:08:42;;;;;;;8.60;5.70;;;;;;;-1.61;89.48;100787.72;106154;1289;71193;-58
2023/12/03 04:11:27;;;;;;;8.30;5.70;;;;;;;-1.62;89.88;100787.38;106165;1289;59253;-57
2023/12/03 04:14:18;;;;;;;9.70;5.80;;;;;;;-1.63;90.24;100788.50;106201;1290;60092;-58
2023/12/03 04:17:04;;;;;;;7.30;5.50;;;;;;;-1.64;89.75;100793.54;106219;1289;73755;-58
2023/12/03 04:19:50;;;;;;;6.90;5.10;;;;;;;-1.63;89.59;100799.98;106255;1289;69233;-58
2023/12/03 04:22:36;;;;;;;85.10;60.10;;;;;;;-1.64;89.94;100805.38;106141;1294;71693;-58
2023/12/03 04:25:22;;;;;;;7.00;5.40;;;;;;;-1.64;90.51;100810.45;106151;1292;57804;-59
2023/12/03 04:28:09;;;;;;;8.70;5.60;;;;;;;-1.62;90.09;100813.88;106243;1289;59433;-59
2023/12/03 04:30:55;;;;;;;6.90;5.70;;;;;;;-1.64;90.86;100813.30;106207;1289;72851;-59
2023/12/03 04:33:41;;;;;;;6.10;5.10;;;;;;;-1.64;90.35;100819.05;106157;1290;67467;-58
2023/12/03 04:36:27;;;;;;;7.00;5.50;;;;;;;-1.64;90.58;100819.23;106188;1290;72580;-59
2023/12/03 04:39:13;;;;;;;5.90;5.30;;;;;;;-1.65;91.80;100822.23;106126;1289;58481;-58
2023/12/03 04:41:59;;;;;;;6.10;5.50;;;;;;;-1.67;90.38;100826.58;106228;1289;59076;-59
2023/12/03 04:44:45;;;;;;;6.70;5.90;;;;;;;-1.66;89.94;100829.66;106171;1291;74027;-58
2023/12/03 04:47:31;;;;;;;6.80;5.80;;;;;;;-1.67;89.72;100834.35;106178;1289;67348;-59
2023/12/03 04:50:17;;;;;;;6.60;5.80;;;;;;;-1.68;89.64;100842.09;106186;1289;71337;-59
2023/12/03 04:53:03;;;;;;;5.90;5.30;;;;;;;-1.70;89.84;100843.02;105931;1292;225816;-58
2023/12/03 04:55:49;;;;;;;7.80;5.80;;;;;;;-1.72;89.74;100843.96;106099;1291;58760;-57
2023/12/03 04:58:35;;;;;;;6.90;6.00;;;;;;;-1.72;89.83;100844.61;105107;1291;73828;-57
2023/12/03 05:01:21;;;;;;;;;;;;;;;-1.75;90.11;100848.23;104854;1292;67282;-57
2023/12/03 05:04:07;;;;;;;7.80;5.80;;;;;;;-1.79;90.02;100853.14;104866;1293;71095;-58
2023/12/03 05:06:54;;;;;;;8.30;7.00;;;;;;;-1.82;90.37;100855.21;104824;1292;60485;-57
2023/12/03 05:09:40;;;;;;;8.70;6.80;;;;;;;-1.84;90.16;100858.85;104881;1291;61229;-56
2023/12/03 05:12:26;;;;;;;7.90;7.10;;;;;;;-1.88;90.42;100864.48;104856;1292;75153;-56
2023/12/03 05:15:13;;;;;;;;;;;;;;;-1.91;90.53;100865.70;104911;1292;67375;-57
2023/12/03 05:17:59;;;;;;;7.30;6.40;;;;;;;-1.94;90.45;100875.39;104799;1292;71313;-58
2023/12/03 05:20:45;;;;;;;8.30;6.70;;;;;;;-1.98;91.41;100881.49;104850;1291;60521;-58
2023/12/03 05:23:32;;;;;;;;;;;;;;;-2.01;91.75;100883.89;104826;1290;60408;-58
2023/12/03 05:26:18;;;;;;;9.20;6.90;;;;;;;-2.04;90.90;100885.65;104886;1291;76024;-56
2023/12/03 05:29:04;;;;;;;;;;;;;;;-2.05;90.62;100889.98;104835;1291;67606;-58
2023/12/03 05:31:50;;;;;;;12.30;11.00;;;;;;;-2.08;90.44;100893.26;104887;1294;71620;-57
2023/12/03 05:34:36;;;;;;;12.00;7.40;;;;;;;-2.12;90.15;100894.96;104831;1292;60498;-57
2023/12/03 05:37:23;;;;;;;10.30;8.50;;;;;;;-2.14;90.25;100898.27;104824;1291;60370;-57
2023/12/03 05:40:10;;;;;;;8.70;7.10;;;;;;;-2.17;90.43;100902.20;104897;1292;72479;-56
2023/12/03 05:42:56;;;;;;;10.90;7.70;;;;;;;-2.21;90.53;100905.08;106070;1294;67964;-58
2023/12/03 05:45:42;;;;;;;12.50;7.50;;;;;;;-2.24;90.27;100905.64;106107;1291;72802;-58
2023/12/03 05:48:28;;;;;;;11.10;7.20;;;;;;;-2.26;90.19;100914.52;106103;1290;58306;-58
2023/12/03 05:51:13;;;;;;;28.00;11.50;;;;;;;-2.27;89.88;100919.20;106126;1291;59938;-58
2023/12/03 05:53:59;;;;;;;12.30;8.20;;;;;;;-2.27;89.46;100926.28;106103;1291;72576;-59
2023/12/03 05:56:45;;;;;;;8.80;7.10;;;;;;;-2.28;89.56;100930.13;106056;1292;68077;-59
2023/12/03 05:59:31;;;;;;;18.70;9.90;;;;;;;-2.30;89.51;100934.27;106052;1291;73364;-58
2023/12/03 06:02:17;;;;;;;11.60;7.30;;;;;;;-2.31;89.80;100937.26;106022;1292;58080;-59
2023/12/03 06:05:04;;;;;;;;;;;;;;;-2.35;89.49;100939.64;106080;1291;58991;-59
2023/12/03 06:07:50;;;;;;;8.80;6.50;;;;;;;-2.39;89.78;100939.64;105998;1292;73191;-58
2023/12/03 06:10:36;;;;;;;7.30;5.40;;;;;;;-2.40;89.25;100941.28;106056;1292;68516;-58
2023/12/03 06:13:22;;;;;;;7.70;6.20;;;;;;;-2.40;89.05;100944.15;106029;1295;72491;-59
2023/12/03 06:16:08;;;;;;;6.00;5.10;;;;;;;-2.41;88.97;100948.34;105998;1292;58179;-58
2023/12/03 06:18:55;;;;;;;5.60;5.00;;;;;;;-2.44;88.77;100950.77;106043;1291;58935;-58
2023/12/03 06:21:41;;;;;;;7.20;5.50;;;;;;;-2.45;88.74;100953.38;106045;1291;72409;-59
2023/12/03 06:24:27;;;;;;;8.00;5.90;;;;;;;-2.49;88.71;100957.43;105111;1292;68626;-58
2023/12/03 06:27:13;;;;;;;7.90;6.10;;;;;;;-2.54;88.76;100957.90;104780;1295;72594;-58
2023/12/03 06:29:59;;;;;;;;;;;;;;;-2.60;89.16;100961.90;104775;1293;62390;-58
2023/12/03 06:32:46;;;;;;;6.20;5.30;;;;;;;-2.65;89.23;100966.73;104803;1295;60467;-58
2023/12/03 06:35:32;;;;;;;;;;;;;;;-2.71;89.03;100969.55;104809;1291;75184;-57
2023/12/03 06:38:18;;;;;;;7.40;5.00;;;;;;;-2.77;89.03;100971.82;104767;1295;70077;-57
2023/12/03 06:41:05;;;;;;;6.60;5.20;;;;;;;-2.82;88.72;100978.16;104736;1291;71257;-57
2023/12/03 06:43:51;;;;;;;8.10;5.60;;;;;;;-2.88;88.92;100982.79;104719;1294;60482;-58
2023/12/03 06:46:39;;;;;;;6.60;5.20;;;;;;;-2.96;88.63;100987.33;104743;1292;60374;-56
2023/12/03 06:49:25;;;;;;;6.50;5.00;;;;;;;-3.06;88.45;100986.73;104766;1292;77266;-57
2023/12/03 06:52:12;;;;;;;5.10;4.40;;;;;;;-3.13;88.63;100991.30;104847;1291;66244;-57
2023/12/03 06:54:58;;;;;;;10.90;5.60;;;;;;;-3.20;88.72;100993.19;104860;1294;71422;-58
2023/12/03 06:57:44;;;;;;;6.60;5.10;;;;;;;-3.26;88.76;100997.61;104831;1295;60804;-56
2023/12/03 07:00:30;;;;;;;7.80;5.90;;;;;;;-3.31;88.54;101002.47;104843;1291;61712;-56
2023/12/03 07:03:17;;;;;;;7.00;4.80;;;;;;;-3.33;88.42;101008.43;104856;1294;74067;-58
2023/12/03 07:06:04;;;;;;;6.00;5.10;;;;;;;-3.37;88.27;101016.16;104871;1291;67907;-57
2023/12/03 07:08:50;;;;;;;5.40;4.40;;;;;;;-3.41;88.40;101016.48;106137;1291;71337;-58
2023/12/03 07:11:36;;;;;;;5.00;4.50;;;;;;;-3.44;88.47;101017.40;106070;1291;58334;-59
2023/12/03 07:14:22;;;;;;;;;;;;;;;-3.42;88.82;101020.18;106116;1293;58822;-57
2023/12/03 07:17:08;;;;;;;6.90;4.80;;;;;;;-3.38;88.52;101022.05;106124;1291;72356;-59
2023/12/03 07:19:54;;;;;;;8.80;5.60;;;;;;;-3.33;88.71;101029.84;106132;1291;66694;-59
2023/12/03 07:22:40;;;;;;;6.80;5.20;;;;;;;-3.28;88.63;101034.96;106089;1292;70868;-58
2023/12/03 07:25:25;;;;;;;;;;;;;;;-3.22;88.29;101036.27;106129;1290;58123;-57
2023/12/03 07:28:11;;;;;;;6.20;4.60;;;;;;;-3.16;88.63;101039.22;106110;1292;59901;-58
2023/12/03 07:30:57;;;;;;;6.00;4.80;;;;;;;-3.13;88.89;101042.22;105941;1292;173409;-58
2023/12/03 07:33:44;;;;;;;6.40;4.40;;;;;;;-3.08;88.58;101041.77;106052;1293;67357;-57
2023/12/03 07:36:30;;;;;;;6.00;4.50;;;;;;;-3.03;88.48;101040.98;106115;1291;72162;-58
2023/12/03 07:39:16;;;;;;;5.70;4.50;;;;;;;-2.94;88.38;101041.89;106101;1292;59024;-59
2023/12/03 07:42:02;;;;;;;6.30;4.30;;;;;;;-2.94;88.60;101044.44;106110;1291;59119;-59
2023/12/03 07:44:48;;;;;;;7.10;4.50;;;;;;;-2.88;88.38;101048.89;106147;1292;73833;-56
2023/12/03 07:47:34;;;;;;;6.30;5.30;;;;;;;-2.85;88.47;101051.23;106080;1295;68461;-59
2023/12/03 07:50:20;;;;;;;6.10;4.60;;;;;;;-2.72;88.22;101059.27;106131;1292;71669;-58
2023/12/03 07:53:06;;;;;;;5.20;4.20;;;;;;;-2.66;88.00;101062.55;106081;1291;59733;-58
2023/12/03 07:55:52;;;;;;;7.40;5.30;;;;;;;-2.62;87.91;101062.06;106109;1294;58943;-59
2023/12/03 07:58:38;;;;;;;5.80;4.70;;;;;;;-2.63;87.93;101066.74;106108;1292;73280;-59
2023/12/03 08:01:24;;;;;;;5.70;4.30;;;;;;;-2.59;87.78;101063.16;106128;1293;66836;-59
2023/12/03 08:04:10;;;;;;;6.20;5.00;;;;;;;-2.62;87.75;101065.43;106068;1291;70206;-59
2023/12/03 08:06:56;;;;;;;6.30;5.50;;;;;;;-2.59;87.90;101068.58;106088;1291;58193;-59
2023/12/03 08:09:42;;;;;;;5.50;4.60;;;;;;;-2.52;87.95;101067.69;106093;1291;59088;-58
2023/12/03 08:12:29;;;;;;;8.50;5.00;;;;;;;-2.42;87.75;101068.97;106077;1291;73525;-58
2023/12/03 08:15:15;;;;;;;7.80;5.00;;;;;;;-2.33;87.20;101073.58;106115;1292;67384;-59
2023/12/03 08:18:01;;;;;;;7.50;5.60;;;;;;;-2.20;86.70;101080.59;106080;1295;71244;-59
2023/12/03 08:20:47;;;;;;;5.50;4.70;;;;;;;-2.07;87.22;101082.13;106006;1291;58411;-59
2023/12/03 08:23:34;;;;;;;5.50;4.60;;;;;;;-2.06;87.19;101090.79;106093;1291;59131;-59
2023/12/03 08:26:20;;;;;;;6.80;4.60;;;;;;;-1.93;87.42;101087.77;106121;1292;72997;-58
2023/12/03 08:29:06;;;;;;;5.80;5.10;;;;;;;-1.78;86.94;101088.57;106171;1292;67652;-59
2023/12/03 08:31:52;;;;;;;7.40;5.30;;;;;;;-1.62;85.84;101093.79;106086;1290;72062;-59
2023/12/03 08:34:38;;;;;;;6.70;4.80;;;;;;;-1.40;86.53;101098.73;106081;1292;58463;-58
2023/12/03 08:37:24;;;;;;;9.80;5.70;;;;;;;-1.26;84.60;101099.95;106072;1294;60205;-59
2023/12/03 08:40:11;;;;;;;7.50;5.20;;;;;;;-1.10;84.25;101102.45;106063;1291;74240;-59
2023/12/03 08:42:57;;;;;;;65.60;58.80;;;;;;;-0.92;84.66;101110.39;106119;1291;67398;-59
2023/12/03 08:45:43;;;;;;;9.80;6.90;;;;;;;-0.98;83.48;101109.66;106069;1292;73373;-59
2023/12/03 08:48:29;;;;;;;13.40;8.30;;;;;;;-0.85;84.76;101117.77;105983;1296;59421;-57
2023/12/03 08:51:15;;;;;;;11.40;7.70;;;;;;;-0.68;84.72;101117.89;106087;1291;58735;-58
2023/12/03 08:54:01;;;;;;;9.60;7.10;;;;;;;-0.35;84.03;101118.59;106081;1291;72615;-58
2023/12/03 08:56:47;;;;;;;9.60;6.40;;;;;;;-0.11;83.32;101120.63;106146;1291;66859;-59
2023/12/03 08:59:33;;;;;;;6.70;6.00;;;;;;;0.03;80.33;101116.19;106119;1291;72836;-57
2023/12/03 09:02:22;;;;;;;8.30;6.70;;;;;;;0.26;80.20;101116.48;106127;1291;58105;-56
2023/12/03 09:05:08;;;;;;;6.90;6.10;;;;;;;0.62;81.67;101119.15;106121;1290;59045;-57
2023/12/03 09:07:54;;;;;;;8.40;7.00;;;;;;;0.85;79.23;101122.77;106115;1291;73547;-56
2023/12/03 09:10:40;;;;;;;10.60;8.10;;;;;;;1.14;79.63;101124.82;106066;1290;67686;-57
2023/12/03 09:13:26;;;;;;;12.30;8.80;;;;;;;1.33;82.46;101124.73;106117;1291;71964;-56
2023/12/03 09:16:12;;;;;;;15.50;10.80;;;;;;;1.51;81.07;101120.83;105935;1295;58230;-57
2023/12/03 09:18:58;;;;;;;13.30;9.50;;;;;;;1.61;81.36;101122.27;106098;1291;60052;-57
2023/12/03 09:21:44;;;;;;;7.40;6.20;;;;;;;1.08;80.18;101124.66;106092;1291;73724;-57
2023/12/03 09:24:31;;;;;;;8.00;5.90;;;;;;;0.50;80.60;101123.02;106110;1290;68342;-58
2023/12/03 09:27:16;;;;;;;8.90;7.10;;;;;;;0.21;82.04;101124.92;105003;1294;71570;-57
2023/12/03 09:30:04;;;;;;;7.40;6.70;;;;;;;0.13;80.58;101123.31;104795;1293;60515;-57
2023/12/03 09:32:50;;;;;;;13.10;8.10;;;;;;;0.03;79.63;101121.25;106135;1291;59056;-59
2023/12/03 09:35:36;;;;;;;8.30;6.20;;;;;;;-0.12;79.55;101126.02;106125;1291;73766;-57
2023/12/03 09:38:22;;;;;;;8.80;6.50;;;;;;;-0.37;79.91;101131.20;106095;1291;67396;-57
2023/12/03 09:41:13;;;;;;;8.80;6.50;;;;;;;-0.76;79.93;101132.15;106094;1292;73027;-56
2023/12/03 09:44:03;;;;;;;8.80;6.60;;;;;;;-0.61;82.03;101133.04;106095;1290;59794;-57
2023/12/03 09:46:50;;;;;;;10.80;7.10;;;;;;;-0.33;83.17;101135.45;106105;1291;60257;-57
2023/12/03 09:49:38;;;;;;;13.90;8.00;;;;;;;-0.13;81.63;101134.80;105986;1291;73409;-56
2023/12/03 09:52:26;;;;;;;10.60;7.50;;;;;;;0.07;81.31;101130.22;106091;1289;67375;-56
2023/12/03 09:55:12;;;;;;;11.10;7.40;;;;;;;0.49;83.19;101127.38;106110;1289;72496;-56
2023/12/03 09:57:59;;;;;;;12.30;8.00;;;;;;;1.34;82.24;101132.05;106192;1289;58948;-56
2023/12/03 10:00:46;;;;;;;8.50;7.20;;;;;;;1.90;80.55;101128.71;106227;1289;58911;-56
2023/12/03 10:03:32;;;;;;;11.10;7.60;;;;;;;2.54;79.63;101132.91;106175;1289;74449;-57
2023/12/03 10:06:22;;;;;;;7.50;6.70;;;;;;;2.60;77.46;101129.80;106140;1290;67141;-57
2023/12/03 10:09:08;;;;;;;9.60;7.50;;;;;;;3.21;80.58;101132.24;106143;1289;71259;-57
2023/12/03 10:12:00;;;;;;;11.50;8.40;;;;;;;3.14;77.42;101133.11;105976;1289;59963;-57
2023/12/03 10:14:46;;;;;;;11.70;9.40;;;;;;;3.63;80.98;101133.63;106170;1289;59061;-56
2023/12/03 10:17:32;;;;;;;11.60;9.10;;;;;;;3.67;73.61;101134.23;106026;1289;73471;-56
2023/12/03 10:20:20;;;;;;;9.90;8.90;;;;;;;3.47;73.76;101134.16;105919;1292;68532;-57
2023/12/03 10:23:13;;;;;;;15.80;12.40;;;;;;;4.11;76.60;101131.14;106160;1289;71116;-56
2023/12/03 10:26:09;;;;;;;10.00;8.90;;;;;;;4.42;73.23;101127.08;106151;1293;58325;-56
2023/12/03 10:28:55;;;;;;;9.20;8.20;;;;;;;4.66;74.65;101132.08;106208;1289;59509;-57
2023/12/03 10:31:41;;;;;;;12.20;10.90;;;;;;;4.39;70.79;101132.30;106134;1291;72318;-57
2023/12/03 10:34:27;;;;;;;64.70;35.00;;;;;;;4.37;72.63;101131.43;106212;1290;67600;-56
2023/12/03 10:37:14;;;;;;;12.00;9.20;;;;;;;3.86;69.67;101130.16;106184;1290;71508;-56
2023/12/03 10:40:00;;;;;;;11.40;10.20;;;;;;;3.57;71.83;101136.39;106216;1292;59524;-57
2023/12/03 10:42:47;;;;;;;13.40;8.80;;;;;;;3.53;70.69;101138.89;106201;1290;59370;-56
2023/12/03 10:45:33;;;;;;;9.00;7.90;;;;;;;3.86;72.13;101142.27;106181;1289;73431;-56
2023/12/03 10:48:20;;;;;;;;;;;;;;;4.09;71.59;101144.41;106190;1289;68847;-57
2023/12/03 10:51:08;;;;;;;10.30;7.90;;;;;;;3.93;72.41;101146.50;106054;1291;72648;-58
2023/12/03 10:53:55;;;;;;;10.50;8.90;;;;;;;3.42;68.79;101154.14;106118;1292;58918;-58
2023/12/03 10:56:42;;;;;;;11.90;10.00;;;;;;;2.75;70.22;101160.80;106165;1289;59139;-58
2023/12/03 10:59:31;;;;;;;;;;;;;;;2.69;72.89;101162.55;106177;1289;72392;-57
2023/12/03 11:02:21;;;;;;;13.50;9.90;;;;;;;3.15;72.64;101161.73;106132;1289;66929;-58
2023/12/03 11:05:10;;;;;;;24.20;13.60;;;;;;;2.95;68.98;101165.52;106168;1290;71944;-58
2023/12/03 11:08:01;;;;;;;19.30;10.20;;;;;;;2.48;71.34;101158.95;105961;1289;58962;-57
2023/12/03 11:10:50;;;;;;;11.50;8.50;;;;;;;1.75;72.71;101159.91;106165;1289;60001;-58
2023/12/03 11:13:36;;;;;;;10.90;9.20;;;;;;;1.69;72.85;101164.15;106167;1291;73378;-58
2023/12/03 11:16:27;;;;;;;10.70;8.30;;;;;;;1.75;74.65;101165.84;106039;1290;67663;-58
2023/12/03 11:19:17;;;;;;;11.20;7.90;;;;;;;1.86;73.62;101168.89;106137;1289;72211;-58
2023/12/03 11:22:10;;;;;;;10.10;7.60;;;;;;;1.24;72.66;101170.16;106191;1290;58918;-58
2023/12/03 11:25:14;;;;;;;9.00;7.60;;;;;;;1.23;73.06;101167.05;106204;1290;60203;-58
2023/12/03 11:28:00;;;;;;;13.30;9.10;;;;;;;1.04;72.98;101167.48;106139;1289;73451;-56
2023/12/03 11:30:48;;;;;;;17.50;9.60;;;;;;;1.18;73.76;101169.77;106180;1291;68274;-58
2023/12/03 11:33:49;;;;;;;19.00;9.10;;;;;;;0.84;73.72;101174.35;106155;1289;72017;-57
2023/12/03 11:36:49;;;;;;;13.50;7.30;;;;;;;0.42;73.75;101174.14;106148;1291;58924;-57
2023/12/03 11:39:46;;;;;;;12.60;8.10;;;;;;;0.31;74.50;101175.80;106227;1289;59327;-57
2023/12/03 11:42:32;;;;;;;12.70;7.70;;;;;;;0.08;74.51;101178.71;106218;1289;74526;-58
2023/12/03 11:45:27;;;;;;;15.90;8.80;;;;;;;-0.24;75.08;101184.02;106154;1289;68358;-58
2023/12/03 11:48:14;;;;;;;12.30;7.90;;;;;;;-0.43;75.19;101183.33;106098;1290;72060;-57
2023/12/03 11:51:00;;;;;;;16.00;9.20;;;;;;;-0.84;76.26;101183.79;106173;1289;59084;-57
2023/12/03 11:54:01;;;;;;;30.90;17.60;;;;;;;-0.98;76.23;101182.73;106136;1290;59830;-56
2023/12/03 11:56:47;;;;;;;22.40;12.30;;;;;;;-1.08;76.95;101188.12;106203;1289;73468;-57
2023/12/03 11:59:33;;;;;;;16.70;10.10;;;;;;;-1.09;76.91;101193.98;106193;1289;68856;-57
2023/12/03 12:02:19;;;;;;;13.50;8.80;;;;;;;-1.28;77.64;101193.89;106193;1289;71234;-58
2023/12/03 12:05:05;;;;;;;11.10;8.50;;;;;;;-1.31;77.75;101194.61;106140;1291;59014;-57
2023/12/03 12:08:04;;;;;;;9.70;7.10;;;;;;;-0.95;77.40;101186.76;106186;1292;58919;-57
2023/12/03 12:10:51;;;;;;;14.80;9.40;;;;;;;-1.05;77.16;101190.79;106201;1289;73439;-58
2023/12/03 12:13:37;;;;;;;14.10;9.10;;;;;;;-1.13;77.31;101198.26;106103;1289;67401;-58
2023/12/03 12:16:23;;;;;;;15.90;9.10;;;;;;;-1.11;77.14;101195.48;106190;1289;72344;-57
2023/12/03 12:19:09;;;;;;;17.90;8.10;;;;;;;-1.28;78.01;101201.00;106181;1290;58963;-58
2023/12/03 12:21:57;;;;;;;14.20;9.00;;;;;;;-1.48;78.24;101204.06;106191;1289;60198;-58
2023/12/03 12:24:46;;;;;;;18.00;13.50;;;;;;;-1.50;78.19;101205.98;106212;1292;73393;-58
2023/12/03 12:27:32;;;;;;;10.90;6.90;;;;;;;-1.64;78.80;101205.09;106207;1289;68595;-58
2023/12/03 12:30:22;;;;;;;14.40;8.60;;;;;;;-1.73;78.93;101202.20;106198;1289;71432;-57
2023/12/03 12:33:09;;;;;;;18.90;10.10;;;;;;;-1.87;80.34;101203.07;106194;1289;58897;-59
2023/12/03 12:36:00;;;;;;;15.00;8.70;;;;;;;-1.87;80.32;101213.90;106131;1290;60926;-60
2023/12/03 12:38:46;;;;;;;13.60;7.90;;;;;;;-1.90;79.56;101210.74;105006;1289;73364;-57
2023/12/03 12:41:36;;;;;;;;;;;;;;;-1.96;80.09;101211.45;104987;1289;67227;-58
2023/12/03 12:44:43;;;;;;;13.40;8.40;;;;;;;-2.01;80.15;101211.79;104873;1293;71265;-58